Bahia Uno — ECFT — position and weather

sailwx.info

Track history (hours):
 
Tides and Currents Weather Stations Pressure Air Temp Water Temp Dewpoint Dewpoint Depression Visibility Wind Speed Wind Dir Waves Ship Positions

Bahia Uno

Last reported at 2017-May-25 18:00 UTC. Time now 2017-May-25 18:00 UTC.
Position N 36°08' W 005°25'.

Length 70 m; draft 5.5 m.

Type: Ship. MMSI: 224127820.

Date/timePositionNaut miles runAvg speedWind from/ knotsBaromVisibWave heightAir tempDewpointWater temp
2017-May-25 18:00N 36°08' W 005°25'  
2017-May-23 04:25N 36°08' W 005°26'0 0.0
2017-May-23 04:00N 36°08' W 005°26'0 0.0
2017-May-23 03:30N 36°08' W 005°26'0 0.0
2017-May-23 02:58N 36°08' W 005°26'0 0.9
2017-May-23 02:25N 36°09' W 005°26'3 1.3
2017-May-23 00:03N 36°06' W 005°25'0 0.2
2017-May-22 23:09N 36°06' W 005°25'0 0.2
2017-May-22 22:38N 36°06' W 005°25'0 0.1
2017-May-22 22:30N 36°06' W 005°25'0 0.0
2017-May-22 19:18N 36°06' W 005°25'0 0.9
2017-May-22 18:57N 36°06' W 005°25'2 0.8
2017-May-22 16:12N 36°08' W 005°26'1 0.0
2017-May-21 07:24N 36°09' W 005°26'2 0.9
2017-May-21 05:04N 36°10' W 005°23'0 0.2
2017-May-21 04:54N 36°10' W 005°23'2 0.3
2017-May-20 20:26N 36°09' W 005°26'1 0.3
2017-May-20 16:21N 36°08' W 005°25'1 2.0
2017-May-20 15:55N 36°08' W 005°26'0 0.0
2017-May-20 05:45N 36°08' W 005°26'1 1.9
2017-May-20 05:27N 36°08' W 005°25'3 0.4
2017-May-19 22:05N 36°05' W 005°24'0 0.0
2017-May-19 21:38N 36°05' W 005°25'1 3.8
2017-May-19 21:30N 36°05' W 005°24'0 0.2
2017-May-19 21:01N 36°05' W 005°24'0 0.1
2017-May-19 20:31N 36°05' W 005°24'0 0.1
2017-May-19 20:01N 36°05' W 005°24'0 0.1
2017-May-19 19:30N 36°05' W 005°24'0 0.1
2017-May-19 19:00N 36°05' W 005°24'0 0.1
2017-May-19 18:22N 36°05' W 005°24'0 0.1
2017-May-19 17:59N 36°05' W 005°24'1 0.1
2017-May-19 10:39N 36°06' W 005°25'1 4.7
2017-May-19 10:26N 36°07' W 005°25'2 0.1
2017-May-18 20:54N 36°05' W 005°24'1 2.7
2017-May-18 20:24N 36°07' W 005°25'3 0.2
2017-May-18 04:32N 36°09' W 005°26'0 0.1
2017-May-18 04:25N 36°09' W 005°26'3 1.4
2017-May-18 02:13N 36°06' W 005°25'0 0.1
2017-May-18 01:57N 36°06' W 005°25'0 0.0
2017-May-18 01:22N 36°06' W 005°25'0 0.1
2017-May-18 00:54N 36°06' W 005°25'0 0.1
2017-May-17 23:51N 36°06' W 005°25'0 0.1
2017-May-17 21:34N 36°06' W 005°25'0 2.5
2017-May-17 21:30N 36°05' W 005°25'1 0.3
2017-May-17 19:47N 36°05' W 005°24'0 0.3
2017-May-17 19:30N 36°05' W 005°24'0 0.1
2017-May-17 18:44N 36°05' W 005°24'0 0.1
2017-May-17 18:08N 36°05' W 005°24'0 0.0
2017-May-17 18:00N 36°05' W 005°24'  
Track history (hours):
 
Tides and Currents Weather Stations Pressure Air Temp Water Temp Dewpoint Dewpoint Depression Visibility Wind Speed Wind Dir Waves Ship Positions

Bahia Uno

Last reported at 2017-May-25 18:00 UTC. Time now 2017-May-25 18:00 UTC.
Position N 36°08' W 005°25'.

Length 70 m; draft 5.5 m.

Type: Ship. MMSI: 224127820.

Date/timePositionNaut miles runAvg speedWind from/ knotsBaromVisibWave heightAir tempDewpointWater temp
2017-May-25 18:00N 36°08' W 005°25'  
2017-May-23 04:25N 36°08' W 005°26'0 0.0
2017-May-23 04:00N 36°08' W 005°26'0 0.0
2017-May-23 03:30N 36°08' W 005°26'0 0.0
2017-May-23 02:58N 36°08' W 005°26'0 0.9
2017-May-23 02:25N 36°09' W 005°26'3 1.3
2017-May-23 00:03N 36°06' W 005°25'0 0.2
2017-May-22 23:09N 36°06' W 005°25'0 0.2
2017-May-22 22:38N 36°06' W 005°25'0 0.1
2017-May-22 22:30N 36°06' W 005°25'0 0.0
2017-May-22 19:18N 36°06' W 005°25'0 0.9
2017-May-22 18:57N 36°06' W 005°25'2 0.8
2017-May-22 16:12N 36°08' W 005°26'1 0.0
2017-May-21 07:24N 36°09' W 005°26'2 0.9
2017-May-21 05:04N 36°10' W 005°23'0 0.2
2017-May-21 04:54N 36°10' W 005°23'2 0.3
2017-May-20 20:26N 36°09' W 005°26'1 0.3
2017-May-20 16:21N 36°08' W 005°25'1 2.0
2017-May-20 15:55N 36°08' W 005°26'0 0.0
2017-May-20 05:45N 36°08' W 005°26'1 1.9
2017-May-20 05:27N 36°08' W 005°25'3 0.4
2017-May-19 22:05N 36°05' W 005°24'0 0.0
2017-May-19 21:38N 36°05' W 005°25'1 3.8
2017-May-19 21:30N 36°05' W 005°24'0 0.2
2017-May-19 21:01N 36°05' W 005°24'0 0.1
2017-May-19 20:31N 36°05' W 005°24'0 0.1
2017-May-19 20:01N 36°05' W 005°24'0 0.1
2017-May-19 19:30N 36°05' W 005°24'0 0.1
2017-May-19 19:00N 36°05' W 005°24'0 0.1
2017-May-19 18:22N 36°05' W 005°24'0 0.1
2017-May-19 17:59N 36°05' W 005°24'1 0.1
2017-May-19 10:39N 36°06' W 005°25'1 4.7
2017-May-19 10:26N 36°07' W 005°25'2 0.1
2017-May-18 20:54N 36°05' W 005°24'1 2.7
2017-May-18 20:24N 36°07' W 005°25'3 0.2
2017-May-18 04:32N 36°09' W 005°26'0 0.1
2017-May-18 04:25N 36°09' W 005°26'3 1.4
2017-May-18 02:13N 36°06' W 005°25'0 0.1
2017-May-18 01:57N 36°06' W 005°25'0 0.0
2017-May-18 01:22N 36°06' W 005°25'0 0.1
2017-May-18 00:54N 36°06' W 005°25'0 0.1
2017-May-17 23:51N 36°06' W 005°25'0 0.1
2017-May-17 21:34N 36°06' W 005°25'0 2.5
2017-May-17 21:30N 36°05' W 005°25'1 0.3
2017-May-17 19:47N 36°05' W 005°24'0 0.3
2017-May-17 19:30N 36°05' W 005°24'0 0.1
2017-May-17 18:44N 36°05' W 005°24'0 0.1
2017-May-17 18:08N 36°05' W 005°24'0 0.0
2017-May-17 18:00N 36°05' W 005°24'  

Dump ship's entire track history